createdAt,value
2023-01-25T00:00:14.039Z,41.97
2023-01-25T00:02:40.556Z,36.28
2023-01-25T00:05:07.670Z,39.83
2023-01-25T00:07:34.548Z,44.08
2023-01-25T00:10:01.106Z,43.60
2023-01-25T00:12:27.720Z,39.47
2023-01-25T00:14:54.197Z,37.67
2023-01-25T00:17:20.680Z,38.83
2023-01-25T00:19:47.154Z,37.20
2023-01-25T00:22:13.678Z,34.83
2023-01-25T00:24:40.381Z,36.15
2023-01-25T00:27:06.886Z,36.30
2023-01-25T00:29:33.376Z,36.42
2023-01-25T00:32:10.978Z,33.00
2023-01-25T00:34:47.177Z,35.80
2023-01-25T00:37:39.670Z,34.35
2023-01-25T00:40:06.686Z,38.05
2023-01-25T00:42:33.317Z,40.08
2023-01-25T00:44:59.810Z,36.05
2023-01-25T00:47:26.513Z,35.92
2023-01-25T00:49:53.208Z,39.17
2023-01-25T00:52:20.685Z,37.47
2023-01-25T00:54:47.392Z,39.53
2023-01-25T00:57:13.954Z,37.17
2023-01-25T00:59:44.319Z,33.15
2023-01-25T01:02:12.027Z,37.33
2023-01-25T01:04:38.679Z,35.97
2023-01-25T01:07:05.465Z,35.92
2023-01-25T01:09:32.526Z,36.33
2023-01-25T01:11:59.064Z,37.95
2023-01-25T01:14:25.683Z,39.58
2023-01-25T01:16:52.238Z,45.17
2023-01-25T01:19:19.098Z,45.83
2023-01-25T01:21:45.616Z,39.60
2023-01-25T01:24:12.220Z,42.83
2023-01-25T01:26:38.884Z,37.40
2023-01-25T01:29:06.023Z,41.88
2023-01-25T01:31:33.297Z,42.50
2023-01-25T01:34:12.528Z,39.72
2023-01-25T01:36:39.273Z,48.28
2023-01-25T01:39:06.031Z,46.42
2023-01-25T01:41:33.289Z,48.20
2023-01-25T01:43:59.812Z,42.88
2023-01-25T01:46:35.057Z,45.22
2023-01-25T01:49:05.874Z,39.67
2023-01-25T01:51:48.689Z,43.90
2023-01-25T01:54:27.383Z,42.92
2023-01-25T01:57:04.421Z,37.15
2023-01-25T01:59:34.152Z,44.00
2023-01-25T02:02:00.827Z,45.65
2023-01-25T02:04:27.993Z,47.05
2023-01-25T02:07:05.972Z,47.15
2023-01-25T02:09:34.183Z,44.55
2023-01-25T02:12:00.930Z,52.45
2023-01-25T02:14:30.767Z,48.15
2023-01-25T02:16:59.378Z,49.20
2023-01-25T02:19:48.043Z,49.22
2023-01-25T02:22:16.359Z,50.72
2023-01-25T02:24:47.432Z,46.88
2023-01-25T02:27:13.995Z,48.05
2023-01-25T02:29:40.948Z,51.30
2023-01-25T02:32:07.569Z,46.10
2023-01-25T02:34:35.623Z,49.40
2023-01-25T02:37:03.327Z,50.20
2023-01-25T02:39:30.050Z,46.67
2023-01-25T02:41:56.531Z,49.97
2023-01-25T02:44:28.235Z,48.33
2023-01-25T02:46:56.549Z,45.33
2023-01-25T02:49:23.308Z,50.90
2023-01-25T02:51:53.172Z,51.80
2023-01-25T02:54:20.699Z,48.15
2023-01-25T02:56:47.205Z,48.00
2023-01-25T02:59:14.608Z,53.03
2023-01-25T03:01:45.775Z,48.67
2023-01-25T03:04:12.659Z,52.10
2023-01-25T03:06:39.716Z,48.78
2023-01-25T03:09:08.881Z,47.17
2023-01-25T03:11:37.406Z,58.80
2023-01-25T03:14:04.031Z,52.92
2023-01-25T03:16:31.627Z,51.38
2023-01-25T03:18:59.523Z,52.38
2023-01-25T03:21:26.150Z,52.15
2023-01-25T03:23:58.349Z,53.63
2023-01-25T03:26:26.924Z,50.83
2023-01-25T03:29:16.068Z,49.80
2023-01-25T03:31:44.401Z,50.08
2023-01-25T03:34:11.822Z,46.42
2023-01-25T03:36:41.604Z,54.28
2023-01-25T03:39:08.114Z,49.03
2023-01-25T03:41:39.486Z,51.08
2023-01-25T03:44:11.410Z,49.03
2023-01-25T03:46:38.887Z,55.22
2023-01-25T03:49:06.142Z,63.08
2023-01-25T03:51:33.506Z,50.53
2023-01-25T03:54:00.152Z,56.83
2023-01-25T03:56:27.565Z,55.38
2023-01-25T03:59:01.476Z,56.78
2023-01-25T04:01:28.009Z,58.92
2023-01-25T04:03:54.639Z,50.65
2023-01-25T04:06:21.214Z,48.70
2023-01-25T04:08:47.886Z,53.15
2023-01-25T04:11:14.766Z,54.85
2023-01-25T04:13:44.410Z,54.50
2023-01-25T04:16:13.561Z,51.10
2023-01-25T04:19:02.726Z,51.75
2023-01-25T04:21:30.982Z,55.25
2023-01-25T04:23:57.720Z,54.13
2023-01-25T04:26:24.847Z,48.97
2023-01-25T04:28:58.396Z,46.65
2023-01-25T04:31:25.372Z,48.20
2023-01-25T04:33:52.568Z,48.50
2023-01-25T04:36:20.326Z,49.47
2023-01-25T04:38:47.729Z,53.42
2023-01-25T04:41:14.859Z,51.03
2023-01-25T04:43:42.920Z,50.83
2023-01-25T04:46:10.492Z,51.70
2023-01-25T04:48:37.495Z,53.15
2023-01-25T04:51:06.528Z,48.40
2023-01-25T04:53:34.294Z,54.33
2023-01-25T04:56:02.147Z,53.60
2023-01-25T04:58:33.064Z,53.90
2023-01-25T05:01:02.301Z,53.38
2023-01-25T05:03:29.183Z,56.28
2023-01-25T05:05:56.179Z,59.60
2023-01-25T05:08:26.097Z,54.03
2023-01-25T05:10:55.627Z,53.33
2023-01-25T05:13:22.145Z,57.53
2023-01-25T05:15:56.597Z,54.78
2023-01-25T05:18:23.761Z,50.72
2023-01-25T05:20:56.341Z,52.38
2023-01-25T05:23:25.166Z,51.97
2023-01-25T05:26:11.402Z,54.80
2023-01-25T05:28:38.295Z,53.30
2023-01-25T05:31:15.500Z,51.22
2023-01-25T05:33:42.624Z,54.17
2023-01-25T05:36:10.053Z,52.65
2023-01-25T05:38:37.713Z,58.28
2023-01-25T05:41:04.386Z,54.97
2023-01-25T05:43:30.978Z,55.58
2023-01-25T05:45:58.537Z,50.95
2023-01-25T05:48:25.495Z,56.47
2023-01-25T05:50:52.679Z,58.60
2023-01-25T05:53:26.893Z,55.38
2023-01-25T05:55:53.907Z,57.72
2023-01-25T05:58:20.610Z,55.25
2023-01-25T06:00:47.227Z,61.72
2023-01-25T06:03:24.397Z,55.67
2023-01-25T06:06:03.980Z,59.70
2023-01-25T06:08:32.677Z,58.10
2023-01-25T06:10:59.163Z,58.15
2023-01-25T06:13:26.002Z,54.63
2023-01-25T06:15:54.907Z,50.08
2023-01-25T06:18:45.020Z,58.00
2023-01-25T06:21:29.884Z,56.95
2023-01-25T06:23:56.525Z,49.60
2023-01-25T06:26:23.139Z,54.92
2023-01-25T06:28:50.665Z,58.38
2023-01-25T06:31:18.662Z,57.58
2023-01-25T06:33:49.405Z,56.25
2023-01-25T06:36:18.610Z,59.63
2023-01-25T06:38:50.484Z,55.42
2023-01-25T06:41:17.186Z,57.35
2023-01-25T06:43:43.744Z,58.38
2023-01-25T06:46:12.040Z,61.75
2023-01-25T06:48:39.091Z,54.53
2023-01-25T06:51:07.625Z,56.33
2023-01-25T06:53:39.501Z,55.22
2023-01-25T06:56:10.859Z,60.30
2023-01-25T06:58:38.659Z,57.10
2023-01-25T07:01:07.474Z,64.78
2023-01-25T07:03:34.589Z,62.00
2023-01-25T07:06:02.890Z,56.40
2023-01-25T07:08:29.915Z,62.42
2023-01-25T07:10:57.908Z,57.65
2023-01-25T07:13:26.079Z,57.60
2023-01-25T07:16:00.796Z,66.38
2023-01-25T07:18:28.534Z,64.90
2023-01-25T07:20:55.102Z,71.25
2023-01-25T07:23:21.767Z,60.95
2023-01-25T07:25:50.083Z,58.85
2023-01-25T07:28:17.495Z,58.72
2023-01-25T07:30:44.448Z,60.85
2023-01-25T07:33:11.317Z,61.20
2023-01-25T07:35:38.122Z,70.20
2023-01-25T07:38:04.748Z,54.42
2023-01-25T07:40:31.332Z,63.13
2023-01-25T07:42:58.692Z,67.30
2023-01-25T07:45:30.299Z,60.33
2023-01-25T07:47:58.157Z,55.65
2023-01-25T07:50:28.976Z,56.33
2023-01-25T07:52:55.517Z,63.85
2023-01-25T07:55:22.195Z,57.88
2023-01-25T07:57:48.824Z,57.65
2023-01-25T08:00:15.802Z,69.55
2023-01-25T08:02:42.836Z,61.83
2023-01-25T08:05:09.802Z,67.55
2023-01-25T08:07:36.559Z,62.20
2023-01-25T08:10:03.206Z,62.00
2023-01-25T08:12:29.760Z,63.55
2023-01-25T08:14:56.685Z,66.70
2023-01-25T08:17:23.175Z,64.45
2023-01-25T08:19:49.709Z,61.83
2023-01-25T08:22:16.210Z,58.65
2023-01-25T08:24:42.864Z,63.85
2023-01-25T08:27:09.441Z,62.20
2023-01-25T08:29:35.959Z,61.00
2023-01-25T08:32:04.313Z,71.43
2023-01-25T08:34:33.341Z,64.30
2023-01-25T08:37:00.035Z,62.30
2023-01-25T08:39:26.687Z,64.78
2023-01-25T08:41:53.221Z,64.82
2023-01-25T08:44:24.073Z,59.90
2023-01-25T08:46:50.631Z,67.85
2023-01-25T08:49:17.294Z,59.42
2023-01-25T08:51:43.922Z,66.82
2023-01-25T08:54:12.256Z,63.97
2023-01-25T08:56:40.014Z,69.60
2023-01-25T08:59:07.750Z,61.72
2023-01-25T09:01:34.333Z,66.57
2023-01-25T09:04:01.049Z,60.47
2023-01-25T09:06:27.662Z,65.82
2023-01-25T09:08:54.750Z,65.22
2023-01-25T09:11:22.366Z,64.18
2023-01-25T09:13:49.691Z,64.43
2023-01-25T09:16:22.659Z,72.30
2023-01-25T09:18:50.919Z,69.57
2023-01-25T09:21:18.483Z,66.93
2023-01-25T09:24:05.381Z,69.20
2023-01-25T09:26:33.952Z,76.97
2023-01-25T09:29:00.644Z,75.25
2023-01-25T09:31:30.491Z,77.65
2023-01-25T09:34:16.395Z,73.82
2023-01-25T09:36:43.014Z,79.55
2023-01-25T09:39:12.143Z,86.03
2023-01-25T09:42:20.499Z,74.50
2023-01-25T09:45:03.142Z,71.55
2023-01-25T09:47:32.460Z,69.18
2023-01-25T09:50:13.817Z,75.20
2023-01-25T09:52:46.179Z,76.55
2023-01-25T09:55:15.215Z,69.72
2023-01-25T09:57:42.766Z,68.55
2023-01-25T10:00:16.738Z,76.20
2023-01-25T10:03:13.783Z,75.93
2023-01-25T10:05:46.068Z,70.20
2023-01-25T10:08:43.247Z,74.80
2023-01-25T10:11:25.956Z,76.35
2023-01-25T10:13:52.583Z,68.75
2023-01-25T10:16:26.379Z,76.53
2023-01-25T10:19:10.388Z,81.13
2023-01-25T10:21:47.235Z,79.82
2023-01-25T10:24:34.906Z,81.47
2023-01-25T10:27:24.136Z,75.72
2023-01-25T10:29:52.380Z,78.20
2023-01-25T10:32:32.465Z,74.35
2023-01-25T10:35:05.919Z,82.38
2023-01-25T10:37:34.432Z,80.30
2023-01-25T10:40:13.321Z,82.35
2023-01-25T10:42:44.624Z,80.32
2023-01-25T10:45:12.782Z,74.70
2023-01-25T10:47:42.233Z,76.53
2023-01-25T10:50:09.381Z,78.07
2023-01-25T10:52:37.721Z,77.82
2023-01-25T10:55:23.529Z,74.20
2023-01-25T10:57:51.958Z,75.40
2023-01-25T11:00:30.518Z,75.45
2023-01-25T11:02:57.684Z,79.93
2023-01-25T11:05:26.508Z,72.13
2023-01-25T11:07:53.275Z,81.10
2023-01-25T11:10:34.864Z,78.13
2023-01-25T11:13:16.463Z,72.78
2023-01-25T11:15:44.941Z,77.25
2023-01-25T11:18:16.197Z,77.20
2023-01-25T11:20:42.745Z,80.07
2023-01-25T11:23:23.715Z,77.13
2023-01-25T11:25:50.563Z,81.38
2023-01-25T11:28:19.790Z,80.13
2023-01-25T11:30:47.141Z,77.45
2023-01-25T11:33:15.178Z,77.18
2023-01-25T11:35:52.839Z,85.93
2023-01-25T11:38:22.199Z,78.15
2023-01-25T11:41:00.945Z,84.65
2023-01-25T11:44:05.600Z,80.30
2023-01-25T11:47:13.378Z,75.13
2023-01-25T11:49:44.888Z,78.88
2023-01-25T11:52:23.675Z,81.47
2023-01-25T11:54:58.743Z,76.40
2023-01-25T11:57:49.356Z,84.20
2023-01-25T12:00:47.122Z,76.20
2023-01-25T12:03:36.988Z,86.63
2023-01-25T12:06:03.544Z,81.93
2023-01-25T12:09:01.220Z,77.18
2023-01-25T12:11:46.861Z,84.68
2023-01-25T12:14:19.123Z,87.68
2023-01-25T12:16:55.744Z,77.93
2023-01-25T12:19:38.133Z,77.00
2023-01-25T12:22:07.356Z,88.82
2023-01-25T12:24:56.907Z,80.57
2023-01-25T12:27:38.471Z,86.43
2023-01-25T12:30:34.786Z,89.28
2023-01-25T12:33:15.486Z,83.40
2023-01-25T12:35:43.433Z,86.45
2023-01-25T12:38:24.946Z,94.45
2023-01-25T12:41:04.611Z,80.63
2023-01-25T12:43:41.941Z,80.88
2023-01-25T12:46:18.542Z,83.35
2023-01-25T12:48:49.313Z,79.45
2023-01-25T12:51:16.545Z,93.15
2023-01-25T12:53:47.220Z,80.90
2023-01-25T12:56:43.917Z,77.65
2023-01-25T12:59:21.780Z,81.28
2023-01-25T13:01:52.116Z,78.30
2023-01-25T13:04:43.187Z,91.78
2023-01-25T13:07:20.040Z,76.55
2023-01-25T13:09:59.703Z,81.53
2023-01-25T13:12:26.216Z,85.03
2023-01-25T13:14:53.108Z,73.30
2023-01-25T13:17:34.259Z,78.85
2023-01-25T13:20:09.035Z,84.28
2023-01-25T13:22:54.911Z,78.25
2023-01-25T13:25:22.792Z,80.78
2023-01-25T13:27:49.350Z,87.93
2023-01-25T13:30:15.972Z,86.82
2023-01-25T13:32:45.448Z,81.40
2023-01-25T13:35:35.097Z,82.53
2023-01-25T13:38:24.732Z,84.93
2023-01-25T13:41:17.627Z,87.97
2023-01-25T13:43:46.978Z,90.97
2023-01-25T13:46:16.390Z,85.80
2023-01-25T13:48:54.262Z,92.22
2023-01-25T13:51:20.886Z,87.32
2023-01-25T13:53:56.265Z,89.57
2023-01-25T13:56:40.643Z,81.65
2023-01-25T13:59:07.149Z,87.18
2023-01-25T14:01:35.432Z,80.97
2023-01-25T14:04:04.213Z,73.35
2023-01-25T14:06:33.880Z,84.05
2023-01-25T14:09:07.316Z,78.47
2023-01-25T14:11:36.531Z,78.40
2023-01-25T14:14:28.987Z,84.28
2023-01-25T14:17:20.057Z,79.03
2023-01-25T14:19:51.717Z,78.38
2023-01-25T14:22:30.836Z,89.75
2023-01-25T14:25:11.358Z,82.25
2023-01-25T14:27:43.948Z,88.53
2023-01-25T14:30:19.848Z,94.38
2023-01-25T14:32:46.421Z,99.90
2023-01-25T14:35:35.984Z,80.95
2023-01-25T14:38:29.727Z,84.93
2023-01-25T14:41:16.552Z,82.68
2023-01-25T14:43:45.985Z,90.57
2023-01-25T14:46:21.159Z,97.22
2023-01-25T14:48:47.860Z,77.72
2023-01-25T14:51:18.704Z,81.13
2023-01-25T14:53:49.034Z,94.60
2023-01-25T14:56:28.099Z,87.72
2023-01-25T14:58:59.879Z,99.95
2023-01-25T15:01:33.090Z,78.30
2023-01-25T15:03:59.715Z,89.43
2023-01-25T15:06:26.335Z,90.85
2023-01-25T15:08:53.023Z,87.47
2023-01-25T15:11:46.100Z,79.07
2023-01-25T15:14:16.526Z,94.47
2023-01-25T15:16:43.162Z,92.65
2023-01-25T15:19:27.236Z,87.93
2023-01-25T15:21:55.466Z,80.43
2023-01-25T15:24:22.314Z,83.20
2023-01-25T15:26:50.570Z,80.63
2023-01-25T15:29:27.184Z,83.47
2023-01-25T15:31:55.725Z,84.82
2023-01-25T15:34:30.235Z,88.38
2023-01-25T15:36:56.926Z,88.20
2023-01-25T15:39:23.442Z,92.32
2023-01-25T15:41:50.100Z,76.78
2023-01-25T15:44:17.537Z,99.70
2023-01-25T15:46:46.500Z,89.80
2023-01-25T15:49:27.824Z,87.47
2023-01-25T15:51:55.400Z,96.32
2023-01-25T15:54:22.218Z,84.28
2023-01-25T15:56:57.003Z,93.30
2023-01-25T15:59:23.879Z,89.18
2023-01-25T16:01:50.605Z,87.82
2023-01-25T16:04:17.145Z,89.93
2023-01-25T16:06:44.363Z,83.95
2023-01-25T16:09:19.687Z,95.13
2023-01-25T16:11:47.986Z,102.75
2023-01-25T16:14:14.610Z,89.13
2023-01-25T16:16:47.636Z,99.38
2023-01-25T16:19:15.732Z,94.03
2023-01-25T16:21:42.931Z,93.40
2023-01-25T16:24:11.021Z,105.53
2023-01-25T16:26:50.282Z,99.85
2023-01-25T16:29:17.537Z,92.47
2023-01-25T16:31:44.438Z,86.05
2023-01-25T16:34:11.239Z,94.82
2023-01-25T16:36:39.534Z,88.93
2023-01-25T16:39:21.113Z,96.43
2023-01-25T16:41:48.567Z,100.70
2023-01-25T16:44:15.718Z,90.45
2023-01-25T16:46:42.772Z,99.57
2023-01-25T16:49:15.450Z,186.93
2023-01-25T16:51:42.009Z,101.47
2023-01-25T16:54:09.908Z,97.22
2023-01-25T16:56:36.454Z,105.57
2023-01-25T16:59:05.050Z,100.43
2023-01-25T17:01:31.956Z,93.18
2023-01-25T17:03:58.957Z,102.60
2023-01-25T17:06:28.327Z,94.68
2023-01-25T17:08:56.190Z,97.82
2023-01-25T17:11:23.209Z,99.57
2023-01-25T17:13:54.775Z,96.43
2023-01-25T17:16:22.879Z,93.80
2023-01-25T17:18:54.683Z,91.30
2023-01-25T17:21:21.189Z,101.57
2023-01-25T17:23:48.226Z,100.25
2023-01-25T17:26:15.839Z,96.38
2023-01-25T17:28:43.404Z,99.22
2023-01-25T17:31:22.204Z,112.65
2023-01-25T17:33:49.437Z,118.00
2023-01-25T17:36:16.259Z,105.93
2023-01-25T17:38:43.137Z,110.50
2023-01-25T17:41:12.882Z,113.82
2023-01-25T17:43:39.595Z,111.88
2023-01-25T17:46:26.120Z,111.85
2023-01-25T17:48:55.969Z,110.10
2023-01-25T17:51:24.796Z,118.40
2023-01-25T17:53:52.101Z,136.00
2023-01-25T17:56:21.791Z,119.35
2023-01-25T17:58:48.354Z,126.90
2023-01-25T18:01:16.118Z,129.75
2023-01-25T18:03:43.580Z,131.05
2023-01-25T18:06:11.927Z,129.65
2023-01-25T18:08:45.508Z,128.77
2023-01-25T18:11:18.037Z,132.68
2023-01-25T18:13:49.709Z,129.93
2023-01-25T18:16:17.853Z,144.88
2023-01-25T18:18:45.549Z,137.75
2023-01-25T18:21:17.068Z,162.18
2023-01-25T18:23:46.537Z,159.50
2023-01-25T18:26:27.099Z,162.60
2023-01-25T18:28:55.153Z,168.27
2023-01-25T18:31:21.748Z,157.35
2023-01-25T18:33:48.352Z,147.88
2023-01-25T18:36:16.312Z,162.55
2023-01-25T18:38:42.866Z,160.23
2023-01-25T18:41:11.848Z,165.23
2023-01-25T18:43:38.561Z,149.98
2023-01-25T18:46:05.230Z,167.88
2023-01-25T18:48:32.112Z,157.73
2023-01-25T18:51:11.129Z,158.25
2023-01-25T18:53:39.302Z,150.18
2023-01-25T18:56:08.254Z,143.43
2023-01-25T18:58:36.485Z,151.88
2023-01-25T19:01:10.378Z,156.07
2023-01-25T19:03:36.950Z,142.13
2023-01-25T19:06:04.444Z,144.45
2023-01-25T19:08:36.415Z,156.02
2023-01-25T19:11:08.566Z,153.75
2023-01-25T19:13:36.892Z,160.77
2023-01-25T19:16:05.768Z,156.45
2023-01-25T19:18:34.109Z,154.35
2023-01-25T19:21:01.046Z,147.50
2023-01-25T19:23:33.208Z,138.10
2023-01-25T19:25:59.746Z,163.15
2023-01-25T19:28:26.362Z,140.00
2023-01-25T19:30:52.950Z,150.88
2023-01-25T19:33:19.554Z,151.55
2023-01-25T19:35:46.145Z,156.00
2023-01-25T19:38:12.775Z,152.40
2023-01-25T19:40:40.235Z,159.23
2023-01-25T19:43:06.782Z,161.13
2023-01-25T19:45:33.348Z,148.45
2023-01-25T19:48:00.017Z,140.25
2023-01-25T19:50:27.515Z,153.05
2023-01-25T19:52:55.087Z,140.15
2023-01-25T19:55:21.564Z,142.68
2023-01-25T19:57:48.181Z,156.50
2023-01-25T20:00:15.300Z,140.50
2023-01-25T20:02:42.035Z,147.77
2023-01-25T20:05:09.883Z,144.45
2023-01-25T20:07:36.561Z,146.95
2023-01-25T20:10:03.769Z,162.82
2023-01-25T20:12:30.368Z,158.88
2023-01-25T20:14:57.093Z,159.98
2023-01-25T20:17:23.676Z,152.05
2023-01-25T20:19:50.488Z,147.60
2023-01-25T20:22:17.461Z,145.82
2023-01-25T20:24:43.983Z,149.52
2023-01-25T20:27:10.598Z,169.38
2023-01-25T20:29:37.145Z,143.65
2023-01-25T20:32:05.748Z,149.30
2023-01-25T20:34:32.673Z,163.75
2023-01-25T20:37:00.218Z,165.40
2023-01-25T20:39:27.011Z,156.93
2023-01-25T20:41:54.055Z,145.40
2023-01-25T20:44:21.236Z,147.43
2023-01-25T20:46:48.768Z,156.68
2023-01-25T20:49:17.664Z,142.55
2023-01-25T20:51:44.842Z,147.10
2023-01-25T20:54:11.965Z,141.32
2023-01-25T20:56:38.951Z,157.82
2023-01-25T20:59:06.074Z,122.82
2023-01-25T21:01:36.543Z,137.68
2023-01-25T21:04:04.233Z,146.38
2023-01-25T21:06:30.844Z,131.38
2023-01-25T21:08:59.130Z,138.00
2023-01-25T21:11:26.104Z,136.20
2023-01-25T21:13:53.941Z,136.25
2023-01-25T21:16:24.220Z,127.38
2023-01-25T21:19:05.070Z,137.93
2023-01-25T21:21:34.484Z,141.80
2023-01-25T21:24:02.515Z,136.85
2023-01-25T21:26:31.172Z,147.25
2023-01-25T21:28:59.204Z,143.02
2023-01-25T21:31:27.769Z,135.90
2023-01-25T21:33:55.024Z,138.25
2023-01-25T21:36:21.929Z,146.27
2023-01-25T21:38:50.465Z,147.07
2023-01-25T21:41:25.199Z,150.55
2023-01-25T21:44:12.172Z,139.25
2023-01-25T21:46:38.889Z,140.18
2023-01-25T21:49:25.922Z,143.60
2023-01-25T21:51:54.788Z,138.05
2023-01-25T21:54:26.299Z,142.52
2023-01-25T21:56:54.903Z,146.45
2023-01-25T21:59:22.057Z,125.22
2023-01-25T22:01:49.280Z,128.90
2023-01-25T22:04:18.382Z,117.78
2023-01-25T22:06:45.680Z,134.80
2023-01-25T22:09:13.319Z,130.60
2023-01-25T22:11:40.415Z,133.38
2023-01-25T22:14:07.684Z,123.45
2023-01-25T22:16:34.216Z,125.85
2023-01-25T22:19:00.707Z,127.35
2023-01-25T22:21:30.589Z,132.75
2023-01-25T22:23:58.025Z,141.75
2023-01-25T22:26:26.801Z,138.40
2023-01-25T22:28:58.293Z,130.77
2023-01-25T22:31:30.016Z,128.00
2023-01-25T22:33:58.195Z,128.13
2023-01-25T22:36:26.968Z,133.15
2023-01-25T22:38:53.502Z,133.32
2023-01-25T22:41:22.729Z,135.95
2023-01-25T22:43:49.599Z,130.63
2023-01-25T22:46:20.664Z,128.05
2023-01-25T22:51:20.310Z,134.73
2023-01-25T22:53:47.350Z,130.30
2023-01-25T22:56:18.962Z,125.47
2023-01-25T22:58:46.528Z,132.27
2023-01-25T23:01:17.756Z,132.07
2023-01-25T23:03:44.384Z,128.98
2023-01-25T23:06:16.203Z,140.07
2023-01-25T23:08:43.152Z,130.48
2023-01-25T23:11:20.823Z,129.43
2023-01-25T23:14:06.367Z,141.43
2023-01-25T23:16:35.838Z,135.70
2023-01-25T23:19:04.119Z,140.55
2023-01-25T23:21:31.325Z,135.43
2023-01-25T23:24:02.393Z,127.63
2023-01-25T23:26:33.943Z,133.95
2023-01-25T23:29:00.449Z,130.63
2023-01-25T23:31:27.126Z,136.93
2023-01-25T23:33:55.805Z,129.60
2023-01-25T23:36:24.607Z,142.05
2023-01-25T23:38:51.753Z,151.38
2023-01-25T23:41:19.738Z,133.05
2023-01-25T23:43:46.486Z,142.80
2023-01-25T23:46:16.194Z,144.25
2023-01-25T23:48:43.942Z,143.50
2023-01-25T23:51:11.195Z,132.38
2023-01-25T23:53:38.421Z,143.85
2023-01-25T23:56:07.954Z,140.30
2023-01-25T23:58:35.606Z,128.90
